Terminal Aerodrome Forecast
Issued by NWS Blacksburg, VA

Current Version | Previous Version | Text Only | Print | Product List | Glossary Off
Versions: 1 2 3 4 5 6 7 8 9 10 11 12 13 14 15 16 17 18 19 20 21 22 23 24 25 26 27 28 29 30 31 32 33 34 35 36 37 38 39 40 41 42 43 44 45 46

176
FTUS41 KRNK 191722
TAFBLF
TAF
KBLF 191722Z 1918/2018 30006KT P6SM BKN035
     FM192000 VRB03KT P6SM BKN050
     FM200200 VRB03KT P6SM SCT050
     FM201000 00000KT 3SM BR BKN025
     FM201200 VRB03KT P6SM SCT030 BKN050
     FM201500 27005KT P6SM SCT035=

USA.gov is the U.S. government's official web portal to all federal, state and local government web resources and services.